sensor_id;sensor_type;location;lat;lon;timestamp;pressure;altitude;pressure_sealevel;temperature;humidity
59240;BME280;45010;53.640;10.578;2023-09-19T00:00:25;99714.44;;;28.95;40.80
59240;BME280;45010;53.640;10.578;2023-09-19T00:03:27;99713.09;;;28.93;40.85
59240;BME280;45010;53.640;10.578;2023-09-19T00:06:29;99709.09;;;28.90;40.75
59240;BME280;45010;53.640;10.578;2023-09-19T00:09:31;99711.78;;;28.90;40.92
59240;BME280;45010;53.640;10.578;2023-09-19T00:12:37;99709.69;;;28.87;40.73
59240;BME280;45010;53.640;10.578;2023-09-19T00:15:45;99711.03;;;28.84;40.77
59240;BME280;45010;53.640;10.578;2023-09-19T00:18:49;99710.00;;;28.80;41.00
59240;BME280;45010;53.640;10.578;2023-09-19T00:21:49;99709.50;;;28.78;41.13
59240;BME280;45010;53.640;10.578;2023-09-19T00:24:49;99711.13;;;28.74;40.77
59240;BME280;45010;53.640;10.578;2023-09-19T00:27:51;99710.09;;;28.70;40.84
59240;BME280;45010;53.640;10.578;2023-09-19T00:30:51;99722.50;;;28.66;41.21
59240;BME280;45010;53.640;10.578;2023-09-19T00:33:52;99718.78;;;28.62;40.88
59240;BME280;45010;53.640;10.578;2023-09-19T00:36:53;99719.34;;;28.58;41.17
59240;BME280;45010;53.640;10.578;2023-09-19T00:39:53;99717.22;;;28.55;41.31
59240;BME280;45010;53.640;10.578;2023-09-19T00:42:57;99709.22;;;28.50;41.33
59240;BME280;45010;53.640;10.578;2023-09-19T00:46:00;99688.94;;;28.39;41.40
59240;BME280;45010;53.640;10.578;2023-09-19T00:49:03;99709.84;;;28.42;41.39
59240;BME280;45010;53.640;10.578;2023-09-19T00:52:03;99721.13;;;28.39;41.41
59240;BME280;45010;53.640;10.578;2023-09-19T00:55:09;99701.38;;;28.29;41.59
59240;BME280;45010;53.640;10.578;2023-09-19T00:58:09;99715.28;;;28.31;41.61
59240;BME280;45010;53.640;10.578;2023-09-19T01:01:10;99715.88;;;28.28;41.40
59240;BME280;45010;53.640;10.578;2023-09-19T01:04:12;99716.41;;;28.25;41.38
59240;BME280;45010;53.640;10.578;2023-09-19T01:07:13;99726.88;;;28.22;41.84
59240;BME280;45010;53.640;10.578;2023-09-19T01:10:17;99712.47;;;28.12;41.63
59240;BME280;45010;53.640;10.578;2023-09-19T01:13:31;99717.56;;;28.09;41.97
59240;BME280;45010;53.640;10.578;2023-09-19T01:16:53;99699.97;;;27.97;42.03
59240;BME280;45010;53.640;10.578;2023-09-19T01:20:21;99733.66;;;28.09;41.73
59240;BME280;45010;53.640;10.578;2023-09-19T01:23:58;99729.66;;;28.06;41.78
59240;BME280;45010;53.640;10.578;2023-09-19T01:30:44;99718.28;;;27.85;41.83
59240;BME280;45010;53.640;10.578;2023-09-19T01:33:54;99739.66;;;27.95;42.10
59240;BME280;45010;53.640;10.578;2023-09-19T01:36:59;99736.47;;;27.93;41.92
59240;BME280;45010;53.640;10.578;2023-09-19T01:40:04;99729.00;;;27.85;41.82
59240;BME280;45010;53.640;10.578;2023-09-19T01:43:27;99741.31;;;27.86;42.21
59240;BME280;45010;53.640;10.578;2023-09-19T01:46:34;99738.13;;;27.84;42.47
59240;BME280;45010;53.640;10.578;2023-09-19T01:49:45;99734.94;;;27.76;42.47
59240;BME280;45010;53.640;10.578;2023-09-19T01:53:11;99741.63;;;27.79;42.08
59240;BME280;45010;53.640;10.578;2023-09-19T01:56:33;99738.44;;;27.77;42.46
59240;BME280;45010;53.640;10.578;2023-09-19T01:59:43;99725.88;;;27.67;42.31
59240;BME280;45010;53.640;10.578;2023-09-19T02:02:47;99740.34;;;27.71;42.74
59240;BME280;45010;53.640;10.578;2023-09-19T02:05:49;99733.38;;;27.70;42.41
59240;BME280;45010;53.640;10.578;2023-09-19T02:08:50;99733.13;;;27.66;42.51
59240;BME280;45010;53.640;10.578;2023-09-19T02:11:50;99744.16;;;27.60;42.63
59240;BME280;45010;53.640;10.578;2023-09-19T02:14:51;99741.47;;;27.60;42.54
59240;BME280;45010;53.640;10.578;2023-09-19T02:17:51;99749.50;;;27.60;42.74
59240;BME280;45010;53.640;10.578;2023-09-19T02:20:53;99758.63;;;27.59;42.53
59240;BME280;45010;53.640;10.578;2023-09-19T02:23:54;99756.50;;;27.50;42.51
59240;BME280;45010;53.640;10.578;2023-09-19T02:26:55;99769.84;;;27.56;42.61
59240;BME280;45010;53.640;10.578;2023-09-19T02:29:56;99767.75;;;27.47;42.62
59240;BME280;45010;53.640;10.578;2023-09-19T02:32:56;99778.97;;;27.49;42.83
59240;BME280;45010;53.640;10.578;2023-09-19T02:35:56;99782.72;;;27.48;42.58
59240;BME280;45010;53.640;10.578;2023-09-19T02:39:00;99784.38;;;27.44;42.76
59240;BME280;45010;53.640;10.578;2023-09-19T02:42:01;99789.72;;;27.44;42.85
59240;BME280;45010;53.640;10.578;2023-09-19T02:45:02;99779.00;;;27.44;43.16
59240;BME280;45010;53.640;10.578;2023-09-19T02:48:06;99787.59;;;27.41;42.78
59240;BME280;45010;53.640;10.578;2023-09-19T02:51:07;99799.38;;;27.40;42.98
59240;BME280;45010;53.640;10.578;2023-09-19T02:54:08;99791.88;;;27.37;42.75
59240;BME280;45010;53.640;10.578;2023-09-19T02:57:08;99798.31;;;27.36;42.69
59240;BME280;45010;53.640;10.578;2023-09-19T03:00:09;99800.47;;;27.34;43.21
59240;BME280;45010;53.640;10.578;2023-09-19T03:03:13;99797.25;;;27.32;43.16
59240;BME280;45010;53.640;10.578;2023-09-19T03:06:13;99799.41;;;27.30;43.12
59240;BME280;45010;53.640;10.578;2023-09-19T03:09:15;99810.09;;;27.30;42.93
59240;BME280;45010;53.640;10.578;2023-09-19T03:12:16;99801.56;;;27.28;43.30
59240;BME280;45010;53.640;10.578;2023-09-19T03:15:16;99790.34;;;27.20;42.96
59240;BME280;45010;53.640;10.578;2023-09-19T03:18:18;99802.38;;;27.23;43.00
59240;BME280;45010;53.640;10.578;2023-09-19T03:21:18;99800.47;;;27.23;43.28
59240;BME280;45010;53.640;10.578;2023-09-19T03:24:19;99811.75;;;27.20;43.45
59240;BME280;45010;53.640;10.578;2023-09-19T03:27:20;99803.72;;;27.20;43.30
59240;BME280;45010;53.640;10.578;2023-09-19T03:30:20;99803.16;;;27.18;43.10
59240;BME280;45010;53.640;10.578;2023-09-19T03:33:21;99812.28;;;27.17;43.47
59240;BME280;45010;53.640;10.578;2023-09-19T03:36:21;99801.59;;;27.07;43.51
59240;BME280;45010;53.640;10.578;2023-09-19T03:39:22;99787.69;;;27.05;43.43
59240;BME280;45010;53.640;10.578;2023-09-19T03:42:22;99794.88;;;27.09;43.36
59240;BME280;45010;53.640;10.578;2023-09-19T03:45:25;99808.53;;;27.13;42.95
59240;BME280;45010;53.640;10.578;2023-09-19T03:48:25;99807.50;;;27.09;43.42
59240;BME280;45010;53.640;10.578;2023-09-19T03:51:26;99800.25;;;27.09;43.07
59240;BME280;45010;53.640;10.578;2023-09-19T03:54:26;99808.56;;;27.08;43.35
59240;BME280;45010;53.640;10.578;2023-09-19T03:57:26;99813.91;;;27.08;43.40
59240;BME280;45010;53.640;10.578;2023-09-19T04:00:27;99814.97;;;27.07;43.37
59240;BME280;45010;53.640;10.578;2023-09-19T04:03:27;99817.13;;;27.05;43.49
59240;BME280;45010;53.640;10.578;2023-09-19T04:06:35;99801.03;;;26.89;43.42
59240;BME280;45010;53.640;10.578;2023-09-19T04:09:35;99818.75;;;26.95;43.62
59240;BME280;45010;53.640;10.578;2023-09-19T04:12:36;99824.06;;;27.01;43.65
59240;BME280;45010;53.640;10.578;2023-09-19T04:15:36;99831.56;;;26.98;43.64
59240;BME280;45010;53.640;10.578;2023-09-19T04:18:37;99827.03;;;26.99;43.56
59240;BME280;45010;53.640;10.578;2023-09-19T04:21:39;99823.03;;;26.96;43.35
59240;BME280;45010;53.640;10.578;2023-09-19T04:24:41;99827.56;;;26.96;43.63
59240;BME280;45010;53.640;10.578;2023-09-19T04:27:41;99832.13;;;26.95;43.50
59240;BME280;45010;53.640;10.578;2023-09-19T04:30:42;99847.38;;;26.95;43.30
59240;BME280;45010;53.640;10.578;2023-09-19T04:33:43;99849.53;;;26.93;43.33
59240;BME280;45010;53.640;10.578;2023-09-19T04:36:43;99857.81;;;26.91;43.32
59240;BME280;45010;53.640;10.578;2023-09-19T04:39:44;99864.22;;;26.90;43.68
59240;BME280;45010;53.640;10.578;2023-09-19T04:42:53;99843.59;;;26.70;43.70
59240;BME280;45010;53.640;10.578;2023-09-19T04:45:56;99888.28;;;26.90;43.25
59240;BME280;45010;53.640;10.578;2023-09-19T04:48:56;99901.09;;;26.88;43.51
59240;BME280;45010;53.640;10.578;2023-09-19T04:51:57;99895.75;;;26.88;43.32
59240;BME280;45010;53.640;10.578;2023-09-19T04:54:58;99899.50;;;26.87;43.46
59240;BME280;45010;53.640;10.578;2023-09-19T04:57:58;99890.97;;;26.85;43.12
59240;BME280;45010;53.640;10.578;2023-09-19T05:00:58;99905.41;;;26.84;42.97
59240;BME280;45010;53.640;10.578;2023-09-19T05:03:59;99914.47;;;26.83;42.89
59240;BME280;45010;53.640;10.578;2023-09-19T05:06:59;99910.19;;;26.82;43.15
59240;BME280;45010;53.640;10.578;2023-09-19T05:10:02;99891.75;;;26.70;42.81
59240;BME280;45010;53.640;10.578;2023-09-19T05:13:05;99909.69;;;26.80;42.80
59240;BME280;45010;53.640;10.578;2023-09-19T05:16:07;99912.63;;;26.78;42.65
59240;BME280;45010;53.640;10.578;2023-09-19T05:19:10;99926.00;;;26.78;42.79
59240;BME280;45010;53.640;10.578;2023-09-19T05:22:12;99938.56;;;26.78;42.72
59240;BME280;45010;53.640;10.578;2023-09-19T05:25:12;99917.69;;;26.69;42.48
59240;BME280;45010;53.640;10.578;2023-09-19T05:28:17;99932.41;;;26.77;42.24
59240;BME280;45010;53.640;10.578;2023-09-19T05:31:17;99927.88;;;26.78;42.51
59240;BME280;45010;53.640;10.578;2023-09-19T05:34:17;99946.03;;;26.76;42.04
59240;BME280;45010;53.640;10.578;2023-09-19T05:37:18;99954.06;;;26.76;42.24
59240;BME280;45010;53.640;10.578;2023-09-19T05:40:19;99950.84;;;26.68;41.96
59240;BME280;45010;53.640;10.578;2023-09-19T05:43:19;99927.81;;;26.57;42.26
59240;BME280;45010;53.640;10.578;2023-09-19T05:46:20;99955.41;;;26.73;42.06
59240;BME280;45010;53.640;10.578;2023-09-19T05:49:20;99951.94;;;26.72;41.88
59240;BME280;45010;53.640;10.578;2023-09-19T05:52:22;99950.34;;;26.71;42.32
59240;BME280;45010;53.640;10.578;2023-09-19T05:55:22;99954.88;;;26.71;42.26
59240;BME280;45010;53.640;10.578;2023-09-19T05:58:25;99953.28;;;26.70;42.41
59240;BME280;45010;53.640;10.578;2023-09-19T06:01:25;99952.44;;;26.69;42.44
59240;BME280;45010;53.640;10.578;2023-09-19T06:04:25;99930.47;;;26.52;42.32
59240;BME280;45010;53.640;10.578;2023-09-19T06:07:25;99953.00;;;26.66;42.59
59240;BME280;45010;53.640;10.578;2023-09-19T06:10:28;99958.34;;;26.66;42.75
59240;BME280;45010;53.640;10.578;2023-09-19T06:13:29;99967.69;;;26.64;42.60
59240;BME280;45010;53.640;10.578;2023-09-19T06:16:30;99963.94;;;26.59;43.06
59240;BME280;45010;53.640;10.578;2023-09-19T06:19:30;99964.22;;;26.63;42.44
59240;BME280;45010;53.640;10.578;2023-09-19T06:22:30;99959.94;;;26.62;42.78
59240;BME280;45010;53.640;10.578;2023-09-19T06:25:31;99976.53;;;26.59;42.94
59240;BME280;45010;53.640;10.578;2023-09-19T06:28:31;99988.81;;;26.55;42.46
59240;BME280;45010;53.640;10.578;2023-09-19T06:31:33;99977.53;;;26.53;42.77
59240;BME280;45010;53.640;10.578;2023-09-19T06:34:34;99979.44;;;26.52;42.56
59240;BME280;45010;53.640;10.578;2023-09-19T06:37:34;99980.22;;;26.53;42.13
59240;BME280;45010;53.640;10.578;2023-09-19T06:40:34;99977.03;;;26.56;41.93
59240;BME280;45010;53.640;10.578;2023-09-19T06:43:35;99982.91;;;26.58;41.69
59240;BME280;45010;53.640;10.578;2023-09-19T06:46:35;99978.88;;;26.55;41.81
59240;BME280;45010;53.640;10.578;2023-09-19T06:49:39;99980.25;;;26.63;41.46
59240;BME280;45010;53.640;10.578;2023-09-19T06:52:42;99965.53;;;26.50;41.32
59240;BME280;45010;53.640;10.578;2023-09-19T06:55:43;99993.91;;;26.67;41.02
59240;BME280;45010;53.640;10.578;2023-09-19T06:58:44;100000.34;;;26.71;40.77
59240;BME280;45010;53.640;10.578;2023-09-19T07:01:44;99993.41;;;26.75;40.68
59240;BME280;45010;53.640;10.578;2023-09-19T07:04:44;100003.31;;;26.80;40.88
59240;BME280;45010;53.640;10.578;2023-09-19T07:07:45;100000.09;;;26.83;40.28
59240;BME280;45010;53.640;10.578;2023-09-19T07:10:45;99999.56;;;26.86;40.49
59240;BME280;45010;53.640;10.578;2023-09-19T07:13:48;99991.28;;;26.88;39.88
59240;BME280;45010;53.640;10.578;2023-09-19T07:16:49;100010.84;;;26.93;39.91
59240;BME280;45010;53.640;10.578;2023-09-19T07:19:50;99992.06;;;26.88;39.60
59240;BME280;45010;53.640;10.578;2023-09-19T07:22:50;100010.34;;;27.02;39.66
59240;BME280;45010;53.640;10.578;2023-09-19T07:25:51;100023.44;;;27.03;39.44
59240;BME280;45010;53.640;10.578;2023-09-19T07:28:51;100017.00;;;27.04;39.83
59240;BME280;45010;53.640;10.578;2023-09-19T07:31:52;100018.66;;;27.05;39.53
59240;BME280;45010;53.640;10.578;2023-09-19T07:34:52;100023.19;;;27.05;39.67
59240;BME280;45010;53.640;10.578;2023-09-19T07:37:55;100028.53;;;27.05;40.07
59240;BME280;45010;53.640;10.578;2023-09-19T07:41:00;100041.66;;;27.06;40.24
59240;BME280;45010;53.640;10.578;2023-09-19T07:44:00;100030.13;;;27.06;40.08
59240;BME280;45010;53.640;10.578;2023-09-19T07:47:01;100028.28;;;27.06;40.25
59240;BME280;45010;53.640;10.578;2023-09-19T07:50:03;100000.38;;;26.86;40.51
59240;BME280;45010;53.640;10.578;2023-09-19T07:53:04;100038.16;;;27.06;40.16
59240;BME280;45010;53.640;10.578;2023-09-19T07:56:05;100034.13;;;26.98;40.59
59240;BME280;45010;53.640;10.578;2023-09-19T07:59:06;100043.00;;;27.04;40.82
59240;BME280;45010;53.640;10.578;2023-09-19T08:02:06;100046.75;;;27.03;40.35
59240;BME280;45010;53.640;10.578;2023-09-19T08:05:10;100011.88;;;26.87;40.32
59240;BME280;45010;53.640;10.578;2023-09-19T08:08:11;100019.38;;;26.85;40.72
59240;BME280;45010;53.640;10.578;2023-09-19T08:11:14;100047.25;;;26.99;40.54
59240;BME280;45010;53.640;10.578;2023-09-19T08:14:21;100044.06;;;26.97;40.71
59240;BME280;45010;53.640;10.578;2023-09-19T08:17:23;100042.44;;;26.96;40.61
59240;BME280;45010;53.640;10.578;2023-09-19T08:20:23;100041.63;;;26.96;41.09
59240;BME280;45010;53.640;10.578;2023-09-19T08:23:24;100031.69;;;26.86;40.93
59240;BME280;45010;53.640;10.578;2023-09-19T08:26:24;100068.13;;;26.92;40.83
59240;BME280;45010;53.640;10.578;2023-09-19T08:29:25;100044.25;;;26.85;41.18
59240;BME280;45010;53.640;10.578;2023-09-19T08:32:28;100063.25;;;26.89;40.94
59240;BME280;45010;53.640;10.578;2023-09-19T08:35:28;99993.59;;;26.48;41.12
59240;BME280;45010;53.640;10.578;2023-09-19T08:38:29;100054.69;;;26.87;41.22
59240;BME280;45010;53.640;10.578;2023-09-19T08:41:30;100056.00;;;26.84;41.03
59240;BME280;45010;53.640;10.578;2023-09-19T08:44:36;100065.94;;;26.84;41.10
59240;BME280;45010;53.640;10.578;2023-09-19T08:47:47;100060.84;;;26.82;41.28
59240;BME280;45010;53.640;10.578;2023-09-19T08:51:26;100061.09;;;26.81;41.02
59240;BME280;45010;53.640;10.578;2023-09-19T08:54:32;100056.81;;;26.80;41.21
59240;BME280;45010;53.640;10.578;2023-09-19T08:57:36;100057.63;;;26.80;41.04
59240;BME280;45010;53.640;10.578;2023-09-19T09:00:40;100052.53;;;26.79;41.17
59240;BME280;45010;53.640;10.578;2023-09-19T09:03:43;100024.91;;;26.57;41.62
59240;BME280;45010;53.640;10.578;2023-09-19T09:06:47;100037.50;;;26.62;41.29
59240;BME280;45010;53.640;10.578;2023-09-19T09:09:53;100058.38;;;26.76;41.55
59240;BME280;45010;53.640;10.578;2023-09-19T09:12:53;100056.78;;;26.69;41.76
59240;BME280;45010;53.640;10.578;2023-09-19T09:15:57;100062.97;;;26.75;41.40
59240;BME280;45010;53.640;10.578;2023-09-19T09:18:59;100065.06;;;26.73;41.60
59240;BME280;45010;53.640;10.578;2023-09-19T09:22:06;100070.69;;;26.66;41.41
59240;BME280;45010;53.640;10.578;2023-09-19T09:25:07;100073.38;;;26.71;41.30
59240;BME280;45010;53.640;10.578;2023-09-19T09:28:08;100071.75;;;26.70;41.41
59240;BME280;45010;53.640;10.578;2023-09-19T09:31:22;100079.78;;;26.70;41.90
59240;BME280;45010;53.640;10.578;2023-09-19T09:34:32;100083.50;;;26.69;41.47
59240;BME280;45010;53.640;10.578;2023-09-19T09:37:33;100073.88;;;26.68;41.87
59240;BME280;45010;53.640;10.578;2023-09-19T09:40:47;100084.59;;;26.68;41.50
59240;BME280;45010;53.640;10.578;2023-09-19T09:43:52;100089.41;;;26.66;41.97
59240;BME280;45010;53.640;10.578;2023-09-19T09:46:53;100081.38;;;26.66;41.83
59240;BME280;45010;53.640;10.578;2023-09-19T09:49:53;100096.59;;;26.66;41.94
59240;BME280;45010;53.640;10.578;2023-09-19T09:53:27;100094.19;;;26.64;42.10
59240;BME280;45010;53.640;10.578;2023-09-19T09:56:58;100099.53;;;26.64;42.03
59240;BME280;45010;53.640;10.578;2023-09-19T10:00:00;100090.69;;;26.58;41.92
59240;BME280;45010;53.640;10.578;2023-09-19T10:03:20;100101.69;;;26.62;42.59
59240;BME280;45010;53.640;10.578;2023-09-19T10:06:23;100100.84;;;26.62;41.72
59240;BME280;45010;53.640;10.578;2023-09-19T10:09:23;100098.47;;;26.60;41.88
59240;BME280;45010;53.640;10.578;2023-09-19T10:12:28;100096.59;;;26.61;41.57
59240;BME280;45010;53.640;10.578;2023-09-19T10:15:31;100094.16;;;26.54;40.85
59240;BME280;45010;53.640;10.578;2023-09-19T10:18:36;100069.22;;;26.43;40.18
59240;BME280;45010;53.640;10.578;2023-09-19T10:21:37;100113.91;;;26.53;40.09
59240;BME280;45010;53.640;10.578;2023-09-19T10:24:40;100102.72;;;26.56;39.38
59240;BME280;45010;53.640;10.578;2023-09-19T10:27:41;100100.53;;;26.48;38.58
59240;BME280;45010;53.640;10.578;2023-09-19T10:30:45;100106.63;;;26.38;38.67
59240;BME280;45010;53.640;10.578;2023-09-19T10:33:47;100104.50;;;26.40;37.93
59240;BME280;45010;53.640;10.578;2023-09-19T10:36:50;100103.94;;;26.32;37.91
59240;BME280;45010;53.640;10.578;2023-09-19T10:39:52;100102.09;;;26.38;37.64
59240;BME280;45010;53.640;10.578;2023-09-19T10:42:53;100082.84;;;26.36;37.19
59240;BME280;45010;53.640;10.578;2023-09-19T10:45:59;100099.16;;;26.40;37.18
59240;BME280;45010;53.640;10.578;2023-09-19T10:49:01;100109.59;;;26.41;36.77
59240;BME280;45010;53.640;10.578;2023-09-19T10:52:05;100081.72;;;26.32;36.74
59240;BME280;45010;53.640;10.578;2023-09-19T10:55:16;100086.59;;;26.40;36.91
59240;BME280;45010;53.640;10.578;2023-09-19T10:58:27;100079.66;;;26.44;37.00
59240;BME280;45010;53.640;10.578;2023-09-19T11:01:45;100097.09;;;26.52;36.91
59240;BME280;45010;53.640;10.578;2023-09-19T11:04:53;100090.41;;;26.55;37.47
59240;BME280;45010;53.640;10.578;2023-09-19T11:07:57;100080.78;;;26.54;37.31
59240;BME280;45010;53.640;10.578;2023-09-19T11:11:00;100090.97;;;26.62;37.48
59240;BME280;45010;53.640;10.578;2023-09-19T11:14:28;100103.28;;;26.63;36.93
59240;BME280;45010;53.640;10.578;2023-09-19T11:17:35;100095.31;;;26.73;36.98
59240;BME280;45010;53.640;10.578;2023-09-19T11:20:42;100102.00;;;26.76;37.01
59240;BME280;45010;53.640;10.578;2023-09-19T11:23:43;100104.44;;;26.78;36.84
59240;BME280;45010;53.640;10.578;2023-09-19T11:27:11;100089.97;;;26.79;36.76
59240;BME280;45010;53.640;10.578;2023-09-19T11:30:26;100091.59;;;26.80;36.86
59240;BME280;45010;53.640;10.578;2023-09-19T11:33:28;100091.59;;;26.80;37.39
59240;BME280;45010;53.640;10.578;2023-09-19T11:36:35;100087.81;;;26.76;37.39
59240;BME280;45010;53.640;10.578;2023-09-19T11:39:36;100093.19;;;26.81;37.29
59240;BME280;45010;53.640;10.578;2023-09-19T11:46:01;100105.50;;;26.82;37.41
59240;BME280;45010;53.640;10.578;2023-09-19T11:49:08;100102.28;;;26.80;37.90
59240;BME280;45010;53.640;10.578;2023-09-19T11:52:21;100067.97;;;26.61;37.62
59240;BME280;45010;53.640;10.578;2023-09-19T11:55:25;100076.03;;;26.66;37.73
59240;BME280;45010;53.640;10.578;2023-09-19T11:58:25;100097.44;;;26.77;37.54
59240;BME280;45010;53.640;10.578;2023-09-19T12:01:33;100085.97;;;26.76;38.19
59240;BME280;45010;53.640;10.578;2023-09-19T12:04:39;100080.84;;;26.69;37.64
59240;BME280;45010;53.640;10.578;2023-09-19T12:07:44;100088.06;;;26.74;37.59
59240;BME280;45010;53.640;10.578;2023-09-19T12:10:49;100087.28;;;26.73;37.46
59240;BME280;45010;53.640;10.578;2023-09-19T12:13:51;100085.69;;;26.72;37.70
59240;BME280;45010;53.640;10.578;2023-09-19T12:16:54;100070.69;;;26.66;37.91
59240;BME280;45010;53.640;10.578;2023-09-19T12:19:56;100084.06;;;26.71;37.27
59240;BME280;45010;53.640;10.578;2023-09-19T12:22:57;100080.84;;;26.69;37.31
59240;BME280;45010;53.640;10.578;2023-09-19T12:25:57;100080.84;;;26.69;37.74
59240;BME280;45010;53.640;10.578;2023-09-19T12:28:59;100092.59;;;26.68;37.49
59240;BME280;45010;53.640;10.578;2023-09-19T12:32:01;100083.78;;;26.68;37.83
59240;BME280;45010;53.640;10.578;2023-09-19T12:35:04;100081.38;;;26.66;37.80
59240;BME280;45010;53.640;10.578;2023-09-19T12:38:10;100090.47;;;26.65;37.53
59240;BME280;45010;53.640;10.578;2023-09-19T12:41:12;100091.50;;;26.64;37.31
59240;BME280;45010;53.640;10.578;2023-09-19T12:44:12;100069.03;;;26.55;37.11
59240;BME280;45010;53.640;10.578;2023-09-19T12:47:16;100082.69;;;26.58;37.46
59240;BME280;45010;53.640;10.578;2023-09-19T12:50:17;100090.97;;;26.62;37.46
59240;BME280;45010;53.640;10.578;2023-09-19T12:53:25;100089.34;;;26.56;37.36
59240;BME280;45010;53.640;10.578;2023-09-19T12:56:26;100072.50;;;26.50;37.44
59240;BME280;45010;53.640;10.578;2023-09-19T12:59:30;100093.13;;;26.60;37.78
59240;BME280;45010;53.640;10.578;2023-09-19T13:02:31;100090.69;;;26.58;37.89
59240;BME280;45010;53.640;10.578;2023-09-19T13:05:49;100078.41;;;26.57;37.83
59240;BME280;45010;53.640;10.578;2023-09-19T13:09:07;100067.94;;;26.51;37.62
59240;BME280;45010;53.640;10.578;2023-09-19T13:12:45;100081.31;;;26.56;37.69
59240;BME280;45010;53.640;10.578;2023-09-19T13:15:53;100070.06;;;26.49;37.77
59240;BME280;45010;53.640;10.578;2023-09-19T13:18:54;100080.78;;;26.54;37.58
59240;BME280;45010;53.640;10.578;2023-09-19T13:21:57;100067.94;;;26.51;38.23
59240;BME280;45010;53.640;10.578;2023-09-19T13:24:57;100072.19;;;26.46;38.13
59240;BME280;45010;53.640;10.578;2023-09-19T13:27:59;100071.63;;;26.44;38.33
59240;BME280;45010;53.640;10.578;2023-09-19T13:31:00;100071.09;;;26.42;38.10
59240;BME280;45010;53.640;10.578;2023-09-19T13:34:01;100049.72;;;26.42;38.03
59240;BME280;45010;53.640;10.578;2023-09-19T13:37:01;100051.31;;;26.43;37.93
59240;BME280;45010;53.640;10.578;2023-09-19T13:40:02;100055.34;;;26.46;37.82
59240;BME280;45010;53.640;10.578;2023-09-19T13:43:05;100051.34;;;26.49;37.89
59240;BME280;45010;53.640;10.578;2023-09-19T13:46:06;100041.72;;;26.53;37.78
59240;BME280;45010;53.640;10.578;2023-09-19T13:49:07;100043.34;;;26.54;36.95
59240;BME280;45010;53.640;10.578;2023-09-19T13:52:08;100027.28;;;26.49;37.45
59240;BME280;45010;53.640;10.578;2023-09-19T13:55:09;100055.69;;;26.60;37.17
59240;BME280;45010;53.640;10.578;2023-09-19T13:58:09;100046.59;;;26.61;37.33
59240;BME280;45010;53.640;10.578;2023-09-19T14:01:11;100047.69;;;26.65;36.70
59240;BME280;45010;53.640;10.578;2023-09-19T14:04:13;100028.66;;;26.67;37.08
59240;BME280;45010;53.640;10.578;2023-09-19T14:07:16;100029.47;;;26.62;36.72
59240;BME280;45010;53.640;10.578;2023-09-19T14:10:17;100037.53;;;26.72;36.48
59240;BME280;45010;53.640;10.578;2023-09-19T14:13:18;100004.88;;;26.65;36.80
59240;BME280;45010;53.640;10.578;2023-09-19T14:16:18;100026.84;;;26.83;36.25
59240;BME280;45010;53.640;10.578;2023-09-19T14:19:18;100025.78;;;26.89;36.66
59240;BME280;45010;53.640;10.578;2023-09-19T14:22:19;100023.69;;;26.91;36.26
59240;BME280;45010;53.640;10.578;2023-09-19T14:25:20;100015.69;;;26.96;36.52
59240;BME280;45010;53.640;10.578;2023-09-19T14:28:20;100011.41;;;27.01;36.34
59240;BME280;45010;53.640;10.578;2023-09-19T14:31:20;100024.78;;;27.06;36.45
59240;BME280;45010;53.640;10.578;2023-09-19T14:34:21;100008.22;;;27.09;36.44
59240;BME280;45010;53.640;10.578;2023-09-19T14:37:21;100004.72;;;27.13;36.26
59240;BME280;45010;53.640;10.578;2023-09-19T14:40:21;100005.00;;;27.17;36.48
59240;BME280;45010;53.640;10.578;2023-09-19T14:43:22;100019.47;;;27.21;36.33
59240;BME280;45010;53.640;10.578;2023-09-19T14:46:23;100017.88;;;27.25;36.69
59240;BME280;45010;53.640;10.578;2023-09-19T14:49:24;100005.53;;;27.30;36.46
59240;BME280;45010;53.640;10.578;2023-09-19T14:52:25;100010.91;;;27.35;36.19
59240;BME280;45010;53.640;10.578;2023-09-19T14:55:28;100005.81;;;27.38;36.17
59240;BME280;45010;53.640;10.578;2023-09-19T14:58:31;99996.44;;;27.41;36.14
59240;BME280;45010;53.640;10.578;2023-09-19T15:01:32;99976.09;;;27.30;36.52
59240;BME280;45010;53.640;10.578;2023-09-19T15:04:32;99998.03;;;27.47;36.18
59240;BME280;45010;53.640;10.578;2023-09-19T15:07:36;100005.56;;;27.50;36.51
59240;BME280;45010;53.640;10.578;2023-09-19T15:10:37;99990.81;;;27.53;36.50
59240;BME280;45010;53.640;10.578;2023-09-19T15:13:38;99984.13;;;27.45;36.60
59240;BME280;45010;53.640;10.578;2023-09-19T15:16:38;99998.06;;;27.58;36.24
59240;BME280;45010;53.640;10.578;2023-09-19T15:19:40;100005.56;;;27.61;36.02
59240;BME280;45010;53.640;10.578;2023-09-19T15:22:40;99991.63;;;27.64;36.31
59240;BME280;45010;53.640;10.578;2023-09-19T15:25:47;99985.75;;;27.62;36.46
59240;BME280;45010;53.640;10.578;2023-09-19T15:28:48;99979.31;;;27.63;36.19
59240;BME280;45010;53.640;10.578;2023-09-19T15:31:49;99995.91;;;27.70;36.53
59240;BME280;45010;53.640;10.578;2023-09-19T15:34:49;99997.50;;;27.71;35.98
59240;BME280;45010;53.640;10.578;2023-09-19T15:37:50;99990.00;;;27.73;36.21
59240;BME280;45010;53.640;10.578;2023-09-19T15:40:50;99993.22;;;27.75;36.14
59240;BME280;45010;53.640;10.578;2023-09-19T15:43:50;99994.84;;;27.76;36.22
59240;BME280;45010;53.640;10.578;2023-09-19T15:46:51;99984.63;;;27.78;36.50
59240;BME280;45010;53.640;10.578;2023-09-19T15:49:51;99992.16;;;27.82;36.45
59240;BME280;45010;53.640;10.578;2023-09-19T15:52:53;99984.38;;;27.80;36.42
59240;BME280;45010;53.640;10.578;2023-09-19T15:55:54;99985.69;;;27.88;36.66
59240;BME280;45010;53.640;10.578;2023-09-19T15:58:55;99988.13;;;27.89;36.47